Time;durP1;ratioP1;P1;durP2;ratioP2;P2;SDS_P1;SDS_P2;PMS_P1;PMS_P2;Temp;Humidity;BMP_temperature;BMP_pressure;BME280_temperature;BME280_humidity;BME280_pressure;Samples;Min_cycle;Max_cycle;Signal;HPM_P1;HPM_P2
2022/07/12 00:00:34;;;;;;;0.70;0.20;;;;;;;16.87;100.00;101502.31;5069425;28;20036;-51
2022/07/12 00:02:59;;;;;;;0.65;0.30;;;;;;;16.87;100.00;101496.94;5072960;28;20036;-50
2022/07/12 00:05:25;;;;;;;2.88;0.20;;;;;;;16.82;100.00;101499.44;5053068;28;20098;-49
2022/07/12 00:07:50;;;;;;;0.03;0.03;;;;;;;16.74;100.00;101501.25;5056737;28;20470;-53
2022/07/12 00:10:16;;;;;;;0.98;0.10;;;;;;;16.68;100.00;101504.78;5051103;28;20383;-53
2022/07/12 00:12:41;;;;;;;0.28;0.20;;;;;;;16.63;100.00;101498.38;5072571;28;20031;-52
2022/07/12 00:15:07;;;;;;;1.10;0.20;;;;;;;16.55;100.00;101502.91;5053533;28;20021;-52
2022/07/12 00:17:33;;;;;;;0.28;0.20;;;;;;;16.47;100.00;101503.13;5058298;28;20040;-52
2022/07/12 00:19:58;;;;;;;0.35;0.20;;;;;;;16.47;100.00;101508.47;5055401;28;20406;-52
2022/07/12 00:22:24;;;;;;;0.32;0.20;;;;;;;16.50;100.00;101515.28;5059120;28;20449;-53
2022/07/12 00:24:50;;;;;;;0.75;0.20;;;;;;;16.42;100.00;101504.75;5051540;28;20041;-53
2022/07/12 00:27:15;;;;;;;0.13;0.10;;;;;;;16.39;100.00;101510.50;5049775;28;20032;-51
2022/07/12 00:29:40;;;;;;;0.55;0.40;;;;;;;16.38;100.00;101500.84;5054708;28;20520;-53
2022/07/12 00:32:07;;;;;;;0.47;0.20;;;;;;;16.38;100.00;101511.53;5041762;28;20448;-51
2022/07/12 00:34:33;;;;;;;0.40;0.10;;;;;;;16.30;100.00;101504.53;5064593;28;20058;-50
2022/07/12 00:36:58;;;;;;;0.10;0.10;;;;;;;16.25;100.00;101512.34;5062481;28;20037;-52
2022/07/12 00:39:24;;;;;;;0.52;0.52;;;;;;;16.22;100.00;101505.56;5055859;28;20052;-54
2022/07/12 00:41:49;;;;;;;0.65;0.10;;;;;;;16.28;100.00;101509.25;5054824;28;20075;-51
2022/07/12 00:44:15;;;;;;;0.82;0.17;;;;;;;16.33;100.00;101510.28;5064755;28;20039;-54
2022/07/12 00:46:40;;;;;;;0.38;0.20;;;;;;;16.33;100.00;101504.13;5064866;28;20564;-50
2022/07/12 00:49:06;;;;;;;1.92;0.20;;;;;;;16.32;100.00;101513.19;5059533;28;20469;-51
2022/07/12 00:51:32;;;;;;;0.70;0.40;;;;;;;16.25;100.00;101517.69;5056105;28;20072;-53
2022/07/12 00:53:59;;;;;;;0.68;0.10;;;;;;;16.13;100.00;101518.31;5051203;28;20386;-54
2022/07/12 00:56:25;;;;;;;0.20;0.10;;;;;;;16.09;100.00;101522.41;5061387;28;20397;-52
2022/07/12 00:58:50;;;;;;;0.60;0.05;;;;;;;16.04;100.00;101510.66;5053976;28;20064;-51
2022/07/12 01:01:16;;;;;;;1.17;0.10;;;;;;;16.03;100.00;101517.03;5058962;28;20108;-51
2022/07/12 01:03:42;;;;;;;4.13;0.20;;;;;;;16.05;100.00;101517.66;5066542;28;20347;-54
2022/07/12 01:06:08;;;;;;;1.08;0.17;;;;;;;16.08;100.00;101517.25;5058213;28;20040;-53
2022/07/12 01:08:34;;;;;;;0.30;0.25;;;;;;;16.08;100.00;101520.78;5072006;28;20040;-49
2022/07/12 01:11:00;;;;;;;0.10;0.10;;;;;;;16.02;100.00;101518.06;5059789;28;20199;-52
2022/07/12 01:13:26;;;;;;;2.22;0.50;;;;;;;16.04;100.00;101521.38;5063047;28;20366;-53
2022/07/12 01:15:53;;;;;;;0.43;0.28;;;;;;;16.04;100.00;101532.06;5050132;28;20507;-53
2022/07/12 01:18:19;;;;;;;0.15;0.10;;;;;;;15.98;100.00;101527.50;5071115;28;20032;-54
2022/07/12 01:20:45;;;;;;;0.20;0.20;;;;;;;15.98;100.00;101514.13;5055039;28;20111;-53
2022/07/12 01:23:12;;;;;;;0.77;0.38;;;;;;;15.99;100.00;101507.78;5064056;28;20119;-53
2022/07/12 01:25:37;;;;;;;0.10;0.00;;;;;;;16.00;100.00;101507.56;5064932;28;20532;-49
2022/07/12 01:28:03;;;;;;;0.40;0.20;;;;;;;16.10;100.00;101518.69;5064812;28;20254;-52
2022/07/12 01:30:29;;;;;;;0.80;0.17;;;;;;;16.12;100.00;101518.50;5058855;28;20619;-53
2022/07/12 01:32:54;;;;;;;0.35;0.28;;;;;;;16.10;100.00;101507.16;5053692;28;20158;-50
2022/07/12 01:35:21;;;;;;;0.25;0.10;;;;;;;16.14;100.00;101511.91;5060424;28;20032;-51
2022/07/12 01:37:47;;;;;;;0.10;0.00;;;;;;;16.17;100.00;101507.19;5055212;28;20032;-52
2022/07/12 01:40:14;;;;;;;1.42;0.88;;;;;;;16.16;100.00;101502.84;5050321;28;20381;-53
2022/07/12 01:42:41;;;;;;;0.65;0.10;;;;;;;16.08;100.00;101504.72;5057976;28;20028;-52
2022/07/12 01:45:08;;;;;;;0.20;0.08;;;;;;;15.98;100.00;101506.94;5058577;28;20454;-54
2022/07/12 01:47:34;;;;;;;5.72;0.47;;;;;;;15.85;100.00;101515.75;5051203;28;20386;-54
2022/07/12 01:50:00;;;;;;;0.73;0.10;;;;;;;15.68;100.00;101517.91;5063326;28;20032;-51
2022/07/12 01:52:26;;;;;;;0.70;0.22;;;;;;;15.63;100.00;101512.34;5061373;28;20393;-50
2022/07/12 01:54:53;;;;;;;0.88;0.10;;;;;;;15.63;100.00;101507.00;5065859;28;20047;-51
2022/07/12 01:57:19;;;;;;;0.43;0.00;;;;;;;15.67;100.00;101515.47;5057996;28;20029;-55
2022/07/12 01:59:45;;;;;;;0.80;0.17;;;;;;;15.68;100.00;101509.06;5059455;28;20044;-51
2022/07/12 02:02:11;;;;;;;0.60;0.10;;;;;;;15.66;100.00;101503.09;5053851;28;20148;-50
2022/07/12 02:04:36;;;;;;;0.73;0.45;;;;;;;15.64;100.00;101515.84;5052066;28;20071;-49
2022/07/12 02:07:03;;;;;;;0.93;0.20;;;;;;;15.66;100.00;101516.47;5057612;28;20334;-55
2022/07/12 02:09:29;;;;;;;1.08;0.45;;;;;;;15.60;100.00;101517.28;5052503;28;20032;-51
2022/07/12 02:11:55;;;;;;;0.30;0.10;;;;;;;15.52;100.00;101525.47;5055139;28;20029;-55
2022/07/12 02:14:21;;;;;;;1.88;0.28;;;;;;;15.43;100.00;101527.44;5050464;28;20064;-53
2022/07/12 02:16:47;;;;;;;0.32;0.30;;;;;;;15.39;100.00;101526.22;5060300;28;20108;-53
2022/07/12 02:19:13;;;;;;;1.35;0.00;;;;;;;15.37;100.00;101536.28;5070042;28;20442;-50
2022/07/12 02:21:40;;;;;;;0.50;0.20;;;;;;;15.31;100.00;101540.56;5060811;28;20028;-50
2022/07/12 02:24:06;;;;;;;1.23;0.10;;;;;;;15.25;100.00;101541.31;5055450;28;20063;-52
2022/07/12 02:26:35;;;;;;;0.75;0.13;;;;;;;15.20;100.00;101533.88;5057155;28;20033;-54
2022/07/12 02:29:03;;;;;;;0.45;0.08;;;;;;;15.18;100.00;101530.63;5060879;28;20040;-48
2022/07/12 02:31:28;;;;;;;1.75;0.00;;;;;;;15.12;100.00;101534.03;5056556;28;20032;-55
2022/07/12 02:33:54;;;;;;;0.35;0.20;;;;;;;15.09;100.00;101530.97;5045978;28;20024;-49
2022/07/12 02:36:19;;;;;;;0.17;0.10;;;;;;;15.06;100.00;101540.19;5061864;28;20043;-51
2022/07/12 02:38:44;;;;;;;1.30;0.77;;;;;;;15.04;100.00;101539.53;5051002;28;20027;-53
2022/07/12 02:41:10;;;;;;;0.40;0.15;;;;;;;15.08;100.00;101532.00;5054734;28;20158;-50
2022/07/12 02:43:35;;;;;;;0.20;0.20;;;;;;;15.08;100.00;101530.13;5034234;28;20090;-51
2022/07/12 02:46:11;;;;;;;0.98;0.30;;;;;;;15.09;100.00;101523.75;5059569;28;20025;-51
2022/07/12 02:48:38;;;;;;;0.20;0.10;;;;;;;15.07;100.00;101517.78;5049413;28;20056;-51
2022/07/12 02:51:05;;;;;;;0.47;0.47;;;;;;;15.00;100.00;101527.63;5059008;28;20047;-49
2022/07/12 02:53:32;;;;;;;1.00;0.10;;;;;;;14.92;100.00;101525.91;5056804;28;20025;-50
2022/07/12 02:55:57;;;;;;;0.93;0.20;;;;;;;14.88;100.00;101540.66;5061318;28;20033;-54
2022/07/12 02:58:22;;;;;;;0.47;0.47;;;;;;;14.85;100.00;101537.56;5050112;28;20504;-53
2022/07/12 03:00:48;;;;;;;1.05;0.32;;;;;;;14.89;100.00;101542.31;5061575;28;20485;-52
2022/07/12 03:03:14;;;;;;;1.55;0.22;;;;;;;14.97;100.00;101531.50;5060918;28;20338;-52
2022/07/12 03:05:40;;;;;;;3.58;1.52;;;;;;;15.04;100.00;101531.53;5062276;28;20085;-52
2022/07/12 03:08:07;;;;;;;1.33;0.30;;;;;;;15.09;100.00;101536.28;5061383;28;20025;-53
2022/07/12 03:10:33;;;;;;;0.10;0.10;;;;;;;15.10;100.00;101527.25;5066434;28;20083;-51
2022/07/12 03:12:58;;;;;;;5.07;0.77;;;;;;;15.09;100.00;101526.44;5050657;28;20112;-48
2022/07/12 03:15:24;;;;;;;0.32;0.30;;;;;;;15.09;100.00;101525.63;5060937;28;20032;-55
2022/07/12 03:17:49;;;;;;;0.08;0.08;;;;;;;15.02;100.00;101521.06;5059283;28;20075;-52
2022/07/12 03:20:15;;;;;;;1.70;0.85;;;;;;;14.98;100.00;101518.97;5051767;28;20028;-53
2022/07/12 03:22:41;;;;;;;0.52;0.00;;;;;;;14.97;100.00;101517.31;5063966;28;20035;-54
2022/07/12 03:25:09;;;;;;;0.40;0.40;;;;;;;15.00;100.00;101517.75;5048813;28;20076;-53
2022/07/12 03:27:35;;;;;;;1.02;0.30;;;;;;;14.99;100.00;101513.41;5056111;28;20493;-55
2022/07/12 03:30:00;;;;;;;0.15;0.10;;;;;;;14.95;100.00;101506.84;5052924;28;20152;-54
2022/07/12 03:32:26;;;;;;;0.15;0.15;;;;;;;14.90;100.00;101506.59;5056324;28;20028;-53
2022/07/12 03:34:52;;;;;;;2.75;0.17;;;;;;;14.87;100.00;101506.97;5060507;28;20040;-53
2022/07/12 03:37:17;;;;;;;6.88;0.98;;;;;;;14.82;100.00;101515.56;5056064;28;20397;-54
2022/07/12 03:39:43;;;;;;;0.70;0.35;;;;;;;14.77;100.00;101519.84;5058733;28;20047;-51
2022/07/12 03:42:08;;;;;;;0.20;0.20;;;;;;;14.73;100.00;101524.72;5055671;28;20243;-54
2022/07/12 03:44:34;;;;;;;0.00;0.00;;;;;;;14.78;100.00;101516.97;5061454;28;20031;-50
2022/07/12 03:47:00;;;;;;;0.13;0.13;;;;;;;14.86;100.00;101516.00;5063529;28;20195;-55
2022/07/12 03:49:25;;;;;;;1.25;0.22;;;;;;;14.90;100.00;101516.44;5048793;28;20041;-53
2022/07/12 03:51:50;;;;;;;0.57;0.10;;;;;;;14.88;100.00;101529.16;5056413;28;20028;-55
2022/07/12 03:54:16;;;;;;;1.33;0.30;;;;;;;14.81;100.00;101523.75;5057083;28;21082;-51
2022/07/12 03:59:25;;;;;;;0.90;0.10;;;;;;;14.71;100.00;101520.59;5056012;28;20151;-51
2022/07/12 04:01:50;;;;;;;0.32;0.32;;;;;;;14.61;100.00;101528.94;5052335;28;20025;-53
2022/07/12 04:04:16;;;;;;;0.10;0.10;;;;;;;14.56;100.00;101518.84;5054180;28;20591;-51
2022/07/12 04:06:41;;;;;;;0.10;0.00;;;;;;;14.51;100.00;101528.41;5052558;28;20516;-50
2022/07/12 04:09:07;;;;;;;0.20;0.20;;;;;;;14.46;100.00;101520.97;5037373;28;20125;-51
2022/07/12 04:11:33;;;;;;;1.85;0.20;;;;;;;14.42;100.00;101532.22;5061541;28;20028;-52
2022/07/12 04:13:58;;;;;;;0.90;0.20;;;;;;;14.37;100.00;101528.28;5054930;28;20044;-51
2022/07/12 04:16:24;;;;;;;0.63;0.30;;;;;;;14.35;100.00;101540.16;5064059;28;20088;-49
2022/07/12 04:18:50;;;;;;;0.43;0.20;;;;;;;14.32;100.00;101532.53;5051019;28;20067;-53
2022/07/12 04:21:15;;;;;;;1.95;0.65;;;;;;;14.35;100.00;101542.81;5060260;28;20033;-50
2022/07/12 04:23:41;;;;;;;0.20;0.13;;;;;;;14.37;100.00;101543.47;5028620;28;20039;-53
2022/07/12 04:26:06;;;;;;;0.30;0.25;;;;;;;14.39;100.00;101542.25;5057981;28;20389;-54
2022/07/12 04:28:31;;;;;;;0.50;0.20;;;;;;;14.42;100.00;101543.72;5068971;28;20038;-53
2022/07/12 04:30:57;;;;;;;0.50;0.20;;;;;;;14.45;100.00;101545.19;5051327;28;20024;-55
2022/07/12 04:33:23;;;;;;;0.10;0.10;;;;;;;14.48;100.00;101547.47;5049188;28;20041;-52
2022/07/12 04:35:48;;;;;;;0.08;0.00;;;;;;;14.50;100.00;101546.25;5058914;28;20039;-49
2022/07/12 04:38:14;;;;;;;0.73;0.30;;;;;;;14.49;100.00;101541.94;5064186;28;20037;-50
2022/07/12 04:40:39;;;;;;;0.35;0.35;;;;;;;14.50;100.00;101542.75;5040118;28;20033;-54
2022/07/12 04:43:05;;;;;;;0.35;0.20;;;;;;;14.53;100.00;101543.25;5051978;28;20025;-53
2022/07/12 04:45:30;;;;;;;2.22;0.75;;;;;;;14.51;100.00;101545.25;5074014;28;20021;-50
2022/07/12 04:47:55;;;;;;;0.32;0.15;;;;;;;14.48;100.00;101540.31;5057666;28;20052;-56
2022/07/12 04:50:21;;;;;;;0.43;0.32;;;;;;;14.46;100.00;101545.00;5057050;28;20052;-51
2022/07/12 04:52:46;;;;;;;0.10;0.10;;;;;;;14.40;100.00;101546.59;5057476;28;20661;-54
2022/07/12 04:55:11;;;;;;;0.45;0.10;;;;;;;14.39;100.00;101549.44;5056113;28;20308;-52
2022/07/12 04:57:37;;;;;;;1.08;0.20;;;;;;;14.36;100.00;101547.16;5061649;28;20032;-52
2022/07/12 05:00:07;;;;;;;1.30;0.20;;;;;;;14.38;100.00;101545.94;5053351;28;20036;-54
2022/07/12 05:02:33;;;;;;;2.72;1.30;;;;;;;14.42;100.00;101546.38;5061811;28;20032;-56
2022/07/12 05:04:58;;;;;;;0.98;0.00;;;;;;;14.48;100.00;101542.97;5047480;28;20386;-50
2022/07/12 05:07:23;;;;;;;2.25;0.17;;;;;;;14.53;100.00;101545.94;5055214;28;20025;-51
2022/07/12 05:09:49;;;;;;;0.52;0.20;;;;;;;14.58;100.00;101550.66;5048878;28;20048;-51
2022/07/12 05:12:14;;;;;;;1.33;0.57;;;;;;;14.66;100.00;101553.19;5051968;28;20423;-51
2022/07/12 05:14:40;;;;;;;0.10;0.10;;;;;;;14.78;100.00;101553.53;5065719;28;20032;-54
2022/07/12 05:17:05;;;;;;;1.65;1.00;;;;;;;14.89;100.00;101544.16;5065634;28;20048;-54
2022/07/12 05:19:30;;;;;;;0.85;0.08;;;;;;;14.97;100.00;101539.50;5053733;28;20079;-53
2022/07/12 05:21:56;;;;;;;0.05;0.05;;;;;;;15.05;100.00;101539.38;5050862;28;20035;-52
2022/07/12 05:24:21;;;;;;;1.08;0.45;;;;;;;15.09;100.00;101539.78;5052102;28;20411;-49
2022/07/12 05:26:46;;;;;;;0.43;0.30;;;;;;;15.15;100.00;101532.84;5055405;28;20025;-50
2022/07/12 05:29:12;;;;;;;3.00;0.25;;;;;;;15.21;100.00;101532.06;5059348;28;20094;-52
2022/07/12 05:31:37;;;;;;;0.17;0.10;;;;;;;15.27;100.00;101536.63;5054252;28;20059;-50
2022/07/12 05:34:02;;;;;;;0.95;0.40;;;;;;;15.36;100.00;101522.09;5050104;28;20033;-49
2022/07/12 05:36:28;;;;;;;0.30;0.10;;;;;;;15.49;100.00;101521.34;5058711;28;20025;-55
2022/07/12 05:38:54;;;;;;;2.17;0.22;;;;;;;15.61;100.00;101519.72;5042311;28;20035;-53
2022/07/12 05:41:19;;;;;;;0.75;0.20;;;;;;;15.74;100.00;101529.69;5067839;28;20040;-53
2022/07/12 05:43:45;;;;;;;0.22;0.20;;;;;;;15.84;100.00;101532.00;5050150;28;20032;-56
2022/07/12 05:46:10;;;;;;;0.70;0.38;;;;;;;16.01;100.00;101538.63;5073496;28;20035;-54
2022/07/12 05:48:37;;;;;;;0.40;0.20;;;;;;;16.14;100.00;101540.53;5048703;28;20067;-54
2022/07/12 05:53:47;;;;;;;2.00;0.50;;;;;;;16.48;100.00;101534.19;5058328;28;20186;-49
2022/07/12 05:56:13;;;;;;;0.68;0.20;;;;;;;16.66;100.00;101538.13;5067514;28;20033;-53
2022/07/12 05:58:39;;;;;;;2.28;1.05;;;;;;;16.79;100.00;101527.44;5047749;28;20068;-53
2022/07/12 06:01:05;;;;;;;2.70;0.40;;;;;;;16.94;100.00;101529.94;5056833;28;20044;-49
2022/07/12 06:03:31;;;;;;;1.27;0.08;;;;;;;17.10;100.00;101534.03;5056720;28;20120;-55
2022/07/12 06:05:56;;;;;;;2.55;0.47;;;;;;;17.26;100.00;101528.22;5056089;28;20029;-53
2022/07/12 06:08:21;;;;;;;2.83;0.22;;;;;;;17.40;100.00;101535.19;5064310;28;20382;-56
2022/07/12 06:10:47;;;;;;;1.50;0.95;;;;;;;17.54;100.00;101533.28;5053227;28;20358;-55
2022/07/12 06:13:12;;;;;;;0.30;0.25;;;;;;;17.70;100.00;101520.44;5054857;28;20037;-53
2022/07/12 06:15:38;;;;;;;3.10;0.20;;;;;;;17.83;100.00;101520.41;5052934;28;20056;-53
2022/07/12 06:18:03;;;;;;;1.65;0.40;;;;;;;17.97;100.00;101519.31;5060366;28;20094;-52
2022/07/12 06:20:29;;;;;;;0.47;0.10;;;;;;;18.15;100.00;101517.75;5054037;28;20132;-53
2022/07/12 06:22:55;;;;;;;2.38;0.50;;;;;;;18.29;100.00;101520.13;5055124;28;20090;-52
2022/07/12 06:25:20;;;;;;;2.08;0.30;;;;;;;18.42;100.00;101513.03;5059192;28;20074;-55
2022/07/12 06:27:47;;;;;;;3.65;0.32;;;;;;;18.55;100.00;101515.63;5056247;28;20036;-54
2022/07/12 06:30:15;;;;;;;0.82;0.13;;;;;;;18.69;100.00;101514.47;5064261;28;20032;-55
2022/07/12 06:32:40;;;;;;;0.57;0.50;;;;;;;18.80;100.00;101507.59;5058208;28;20029;-55
2022/07/12 06:35:06;;;;;;;1.58;0.35;;;;;;;18.91;100.00;101498.78;5058705;28;20485;-56
2022/07/12 06:37:32;;;;;;;2.75;0.22;;;;;;;19.04;100.00;101487.09;5058006;28;20021;-54
2022/07/12 06:39:57;;;;;;;1.88;0.63;;;;;;;19.17;100.00;101495.00;5051020;28;20047;-57
2022/07/12 06:42:22;;;;;;;1.95;0.70;;;;;;;19.31;100.00;101479.56;5054055;28;20518;-56
2022/07/12 06:44:48;;;;;;;0.43;0.40;;;;;;;19.53;100.00;101468.34;5056117;28;20024;-53
2022/07/12 06:47:13;;;;;;;1.17;0.20;;;;;;;19.75;100.00;101469.53;5063340;28;20124;-57
2022/07/12 06:49:38;;;;;;;0.63;0.22;;;;;;;19.98;100.00;101465.25;5050240;28;20444;-55
2022/07/12 06:52:04;;;;;;;1.15;0.32;;;;;;;20.21;100.00;101462.66;5054393;28;20033;-54
2022/07/12 06:54:30;;;;;;;0.65;0.40;;;;;;;20.39;100.00;101463.59;5051531;28;20052;-56
2022/07/12 06:56:55;;;;;;;1.10;0.20;;;;;;;20.48;100.00;101459.50;5054093;28;20032;-54
2022/07/12 06:59:20;;;;;;;0.47;0.10;;;;;;;20.53;100.00;101459.63;5051995;28;20036;-52
2022/07/12 07:01:46;;;;;;;0.40;0.13;;;;;;;20.51;100.00;101471.69;5040137;28;20052;-56
2022/07/12 07:04:11;;;;;;;2.85;0.20;;;;;;;20.53;100.00;101486.56;5053317;28;20020;-59
2022/07/12 07:06:37;;;;;;;1.65;0.15;;;;;;;20.63;100.00;101489.53;5049105;28;20056;-56
2022/07/12 07:09:06;;;;;;;2.83;0.50;;;;;;;20.64;100.00;101512.72;5047087;28;20025;-57
2022/07/12 07:11:32;;;;;;;1.13;0.20;;;;;;;20.69;100.00;101520.13;5041386;28;20037;-56
2022/07/12 07:13:57;;;;;;;1.60;0.43;;;;;;;20.78;100.00;101517.88;5049826;28;20036;-54
2022/07/12 07:16:24;;;;;;;0.20;0.10;;;;;;;20.87;100.00;101519.19;5056013;28;20032;-55
2022/07/12 07:18:50;;;;;;;2.97;0.35;;;;;;;21.03;100.00;101540.03;5047839;28;20039;-56
2022/07/12 07:21:15;;;;;;;1.20;0.40;;;;;;;21.22;100.00;101512.94;5059467;28;20037;-53
2022/07/12 07:23:40;;;;;;;0.10;0.00;;;;;;;21.45;100.00;101495.91;5048068;28;20133;-55
2022/07/12 07:26:06;;;;;;;2.60;0.20;;;;;;;21.64;100.00;101499.28;5052820;28;20460;-57
2022/07/12 07:28:31;;;;;;;0.75;0.20;;;;;;;21.69;100.00;101497.50;5049120;28;20033;-58
2022/07/12 07:30:58;;;;;;;0.75;0.30;;;;;;;21.77;100.00;101485.50;5064600;28;20025;-53
2022/07/12 07:33:25;;;;;;;6.32;0.30;;;;;;;21.94;100.00;101490.94;5058191;28;20405;-57
2022/07/12 07:35:51;;;;;;;0.00;0.00;;;;;;;22.14;100.00;101485.88;5062888;28;20033;-49
2022/07/12 07:38:18;;;;;;;0.20;0.17;;;;;;;22.19;100.00;101482.50;5060080;28;20028;-52
2022/07/12 07:40:44;;;;;;;0.70;0.43;;;;;;;22.23;100.00;101480.09;5059864;28;20074;-55
2022/07/12 07:43:09;;;;;;;1.35;0.20;;;;;;;22.25;100.00;101478.81;5067108;28;20114;-56
2022/07/12 07:45:35;;;;;;;1.10;0.10;;;;;;;22.28;100.00;101466.69;5058754;28;20032;-56
2022/07/12 07:48:01;;;;;;;0.32;0.10;;;;;;;22.29;100.00;101458.34;5069664;28;20035;-50
2022/07/12 07:50:27;;;;;;;0.25;0.10;;;;;;;22.26;100.00;101450.75;5063057;28;20029;-56
2022/07/12 07:52:52;;;;;;;0.80;0.00;;;;;;;22.24;100.00;101450.16;5070738;28;20136;-58
2022/07/12 07:55:18;;;;;;;2.10;1.05;;;;;;;22.25;100.00;101459.09;5068419;28;20103;-58
2022/07/12 07:57:43;;;;;;;2.97;0.60;;;;;;;22.23;100.00;101459.34;5059041;28;20048;-59
2022/07/12 08:00:10;;;;;;;0.15;0.10;;;;;;;22.23;100.00;101470.16;5060591;28;20025;-58
2022/07/12 08:02:36;;;;;;;2.85;0.30;;;;;;;22.32;100.00;101465.16;5062391;28;20393;-58
2022/07/12 08:05:01;;;;;;;0.50;0.10;;;;;;;22.42;100.00;101447.22;5059927;28;20028;-47
2022/07/12 08:07:27;;;;;;;0.35;0.10;;;;;;;22.60;100.00;101453.44;5063521;28;20147;-54
2022/07/12 08:09:52;;;;;;;2.80;0.52;;;;;;;22.83;100.00;101455.94;5067570;28;20054;-55
2022/07/12 08:12:17;;;;;;;1.20;0.10;;;;;;;23.11;100.00;101454.16;5061049;28;20031;-54
2022/07/12 08:14:43;;;;;;;4.80;0.30;;;;;;;23.37;100.00;101468.81;5033616;28;20025;-52
2022/07/12 08:17:08;;;;;;;1.65;0.10;;;;;;;23.63;100.00;101461.81;5060386;28;20029;-49
2022/07/12 08:19:34;;;;;;;1.17;0.38;;;;;;;23.72;100.00;101460.31;5064586;28;20027;-48
2022/07/12 08:21:59;;;;;;;3.20;0.65;;;;;;;23.79;100.00;101465.50;5063130;28;20457;-53
2022/07/12 08:24:25;;;;;;;2.95;0.25;;;;;;;23.85;100.00;101455.53;5060599;28;20052;-45
2022/07/12 08:26:50;;;;;;;1.95;0.13;;;;;;;24.01;100.00;101467.34;5063677;28;20052;-53
2022/07/12 08:29:16;;;;;;;0.17;0.10;;;;;;;24.12;100.00;101467.19;5052260;28;20024;-49
2022/07/12 08:31:41;;;;;;;1.20;0.40;;;;;;;24.39;100.00;101485.28;5053895;28;20024;-59
2022/07/12 08:34:06;;;;;;;1.15;0.40;;;;;;;24.59;100.00;101490.88;5057531;28;20131;-49
2022/07/12 08:36:32;;;;;;;2.33;0.20;;;;;;;24.78;100.00;101493.16;5067993;28;20040;-57
2022/07/12 08:38:57;;;;;;;1.00;0.15;;;;;;;24.93;100.00;101495.16;5046463;28;20374;-60
2022/07/12 08:41:23;;;;;;;2.30;0.73;;;;;;;24.94;100.00;101491.38;5068197;28;20512;-56
2022/07/12 08:43:48;;;;;;;1.30;0.10;;;;;;;24.92;100.00;101486.22;5065393;28;20027;-50
2022/07/12 08:46:15;;;;;;;6.50;0.45;;;;;;;24.91;100.00;101483.75;5055434;28;20028;-57
2022/07/12 08:48:44;;;;;;;1.67;0.20;;;;;;;24.96;100.00;101479.19;5060060;28;20477;-54
2022/07/12 08:51:12;;;;;;;1.10;0.15;;;;;;;25.03;100.00;101482.47;5060606;28;20020;-59
2022/07/12 08:53:38;;;;;;;0.45;0.13;;;;;;;24.91;100.00;101486.47;5064062;28;20032;-59
2022/07/12 08:56:05;;;;;;;0.38;0.20;;;;;;;24.88;100.00;101481.56;5053858;28;20021;-47
2022/07/12 08:58:31;;;;;;;0.52;0.25;;;;;;;25.10;100.00;101489.56;5060191;28;20393;-58
2022/07/12 09:00:56;;;;;;;1.02;0.13;;;;;;;25.41;100.00;101502.22;5073416;28;20035;-57
2022/07/12 09:03:22;;;;;;;0.68;0.20;;;;;;;25.73;100.00;101503.94;5058281;28;20020;-58
2022/07/12 09:05:55;;;;;;;0.10;0.10;;;;;;;25.88;100.00;101489.59;5067323;28;20064;-51
2022/07/12 09:08:26;;;;;;;0.32;0.20;;;;;;;25.80;100.00;101498.25;5058410;28;20047;-58
2022/07/12 09:10:53;;;;;;;0.40;0.30;;;;;;;25.53;100.00;101498.44;5064527;28;20166;-58
2022/07/12 09:13:19;;;;;;;0.43;0.08;;;;;;;25.21;100.00;101491.28;5040255;28;20043;-65
2022/07/12 09:15:48;;;;;;;0.68;0.30;;;;;;;24.91;100.00;101492.72;5044525;28;20036;-62
2022/07/12 09:18:15;;;;;;;2.17;0.28;;;;;;;24.75;100.00;101488.28;5056501;28;20330;-57
2022/07/12 09:20:43;;;;;;;1.05;0.17;;;;;;;24.81;100.00;101485.34;5051329;28;20040;-53
2022/07/12 09:23:11;;;;;;;0.55;0.20;;;;;;;24.82;100.00;101472.59;5063176;28;20085;-57
2022/07/12 09:25:38;;;;;;;0.65;0.17;;;;;;;24.83;100.00;101478.81;5038473;28;20047;-57
2022/07/12 09:28:07;;;;;;;0.45;0.20;;;;;;;24.87;100.00;101486.19;5058325;28;20465;-58
2022/07/12 09:30:33;;;;;;;2.53;0.28;;;;;;;24.99;100.00;101484.09;5052291;28;20275;-56
2022/07/12 09:36:17;;;;;;;0.93;0.20;;;;;;;25.22;100.00;101474.75;5056389;28;20131;-51
2022/07/12 09:38:54;;;;;;;0.32;0.17;;;;;;;25.42;100.00;101473.16;5064542;28;20040;-58
2022/07/12 09:41:21;;;;;;;3.13;0.03;;;;;;;25.68;100.00;101476.75;5058625;28;20029;-59
2022/07/12 09:43:47;;;;;;;3.97;0.20;;;;;;;25.97;100.00;101465.44;5063737;28;20039;-46
2022/07/12 09:46:17;;;;;;;1.88;0.10;;;;;;;26.42;100.00;101470.06;5064335;28;20032;-58
2022/07/12 09:48:44;;;;;;;0.40;0.40;;;;;;;26.79;100.00;101479.00;5053489;28;20537;-55
2022/07/12 09:51:13;;;;;;;0.25;0.10;;;;;;;26.79;100.00;101481.72;5054133;28;20043;-58
2022/07/12 09:53:43;;;;;;;0.20;0.13;;;;;;;26.59;100.00;101488.84;5061683;28;20046;-61
2022/07/12 09:56:11;;;;;;;0.52;0.32;;;;;;;26.45;100.00;101476.84;5033906;28;20420;-52
2022/07/12 09:58:57;;;;;;;0.10;0.00;;;;;;;26.45;100.00;101474.94;5052252;28;20499;-58
2022/07/12 10:01:24;;;;;;;1.02;0.10;;;;;;;26.52;100.00;101472.78;5062613;28;20084;-61
2022/07/12 10:03:51;;;;;;;0.75;0.15;;;;;;;26.71;100.00;101478.47;5064243;28;20468;-59
2022/07/12 10:06:26;;;;;;;5.60;0.25;;;;;;;27.17;100.00;101478.34;5063587;28;20060;-55
2022/07/12 10:08:54;;;;;;;2.65;0.20;;;;;;;27.39;100.00;101472.56;5060530;28;20021;-59
2022/07/12 10:11:19;;;;;;;0.35;0.13;;;;;;;27.44;100.00;101487.22;5052470;28;20036;-48
2022/07/12 10:13:46;;;;;;;1.50;0.82;;;;;;;27.24;100.00;101482.72;5061044;28;20024;-58
2022/07/12 10:16:14;;;;;;;0.68;0.20;;;;;;;27.19;100.00;101478.91;5060935;28;20477;-60
2022/07/12 10:18:40;;;;;;;2.67;0.22;;;;;;;27.27;100.00;101482.16;5063627;28;20025;-46
2022/07/12 10:21:21;;;;;;;0.13;0.13;;;;;;;27.32;98.87;101474.75;5053531;28;20043;-59
2022/07/12 10:23:47;;;;;;;1.35;0.28;;;;;;;27.42;100.00;101465.72;5055472;28;20033;-60
2022/07/12 10:26:16;;;;;;;1.05;0.20;;;;;;;27.43;99.31;101463.81;5062976;28;20361;-54
2022/07/12 10:28:55;;;;;;;5.15;0.40;;;;;;;27.42;99.18;101449.41;5060409;28;20449;-50
2022/07/12 10:31:24;;;;;;;0.45;0.28;;;;;;;27.30;98.51;101457.88;5054498;28;20032;-53
2022/07/12 10:33:59;;;;;;;4.00;0.32;;;;;;;27.56;99.24;101463.19;5059643;28;20021;-55
2022/07/12 10:36:25;;;;;;;2.17;0.17;;;;;;;27.58;98.32;101464.53;5054014;28;20036;-58
2022/07/12 10:39:11;;;;;;;0.90;0.25;;;;;;;27.63;97.41;101467.25;5052914;28;20492;-53
2022/07/12 10:41:36;;;;;;;1.02;0.20;;;;;;;27.77;99.00;101455.69;5061169;28;20078;-43
2022/07/12 10:44:06;;;;;;;0.68;0.10;;;;;;;27.68;96.27;101454.69;5056886;28;20404;-54
2022/07/12 10:46:34;;;;;;;6.22;0.10;;;;;;;27.47;95.19;101453.97;5063347;28;20486;-53
2022/07/12 10:49:29;;;;;;;1.13;0.10;;;;;;;27.38;95.16;101437.44;5044780;28;20028;-57
2022/07/12 10:52:10;;;;;;;0.95;0.15;;;;;;;27.55;96.29;101443.31;5054700;28;20071;-54
2022/07/12 10:54:55;;;;;;;3.05;0.40;;;;;;;27.70;95.86;101455.19;5057401;28;20032;-51
2022/07/12 10:57:49;;;;;;;0.65;0.10;;;;;;;27.72;93.58;101450.28;5036161;28;20421;-57
2022/07/12 11:00:15;;;;;;;4.03;0.20;;;;;;;27.99;93.89;101447.13;5047818;28;20119;-59
2022/07/12 11:02:41;;;;;;;0.95;0.25;;;;;;;28.39;93.32;101431.50;5059319;28;20025;-60
2022/07/12 11:05:08;;;;;;;1.35;0.15;;;;;;;28.75;92.66;101440.16;5059932;28;20393;-60
2022/07/12 11:07:34;;;;;;;0.52;0.20;;;;;;;28.81;91.58;101443.63;5056692;28;20033;-57
2022/07/12 11:09:59;;;;;;;2.40;0.30;;;;;;;28.95;91.34;101443.75;5056017;28;20365;-48
2022/07/12 11:12:31;;;;;;;5.00;0.93;;;;;;;28.88;90.49;101455.00;5064460;28;20149;-56
2022/07/12 11:15:00;;;;;;;3.38;0.63;;;;;;;28.96;90.45;101443.44;5064033;28;20115;-54
2022/07/12 11:17:27;;;;;;;0.57;0.40;;;;;;;29.05;88.30;101443.66;5052941;28;20429;-55
2022/07/12 11:20:08;;;;;;;1.38;0.50;;;;;;;29.13;86.16;101446.53;5055792;28;20044;-50
2022/07/12 11:22:33;;;;;;;;;;;;;;;29.12;83.99;101447.66;5053713;28;20031;-52
2022/07/12 11:24:59;;;;;;;0.33;0.20;;;;;;;29.16;87.74;101447.06;5055815;28;19920;-48